Time;durP1;ratioP1;P1;durP2;ratioP2;P2;SDS_P1;SDS_P2;PMS_P1;PMS_P2;Temp;Humidity;BMP_temperature;BMP_pressure;BME280_temperature;BME280_humidity;BME280_pressure;Samples;Min_cycle;Max_cycle;Signal;HPM_P1;HPM_P2
2021/12/27 00:01:30;;;;;;;119.03;106.53;;;2.10;93.10;;;;;;5053393;28;19925;-75
2021/12/27 00:03:59;;;;;;;120.45;107.95;;;2.10;92.90;;;;;;5052568;28;20094;-76
2021/12/27 00:06:25;;;;;;;119.10;106.80;;;2.00;92.80;;;;;;5051863;28;20049;-75
2021/12/27 00:08:53;;;;;;;119.50;106.90;;;2.00;92.80;;;;;;5052512;28;20537;-75
2021/12/27 00:11:20;;;;;;;;;;;2.00;92.90;;;;;;5052581;28;20138;-76
2021/12/27 00:13:48;;;;;;;120.55;107.95;;;1.90;93.80;;;;;;5051656;28;20445;-75
2021/12/27 00:16:15;;;;;;;119.85;107.50;;;1.90;93.70;;;;;;5052307;28;20490;-75
2021/12/27 00:18:42;;;;;;;119.63;107.22;;;2.00;94.00;;;;;;5053658;28;20053;-76
2021/12/27 00:21:11;;;;;;;119.00;106.68;;;2.10;93.80;;;;;;5053203;28;20057;-75
2021/12/27 00:23:38;;;;;;;120.63;107.95;;;2.20;93.70;;;;;;5053397;28;20132;-75
2021/12/27 00:26:06;;;;;;;120.68;108.18;;;2.20;93.70;;;;;;5051871;28;20112;-75
2021/12/27 00:28:34;;;;;;;;;;;2.30;93.70;;;;;;5039906;28;20050;-75
2021/12/27 00:31:01;;;;;;;120.85;108.25;;;2.40;94.00;;;;;;5040206;28;19932;-75
2021/12/27 00:33:28;;;;;;;121.13;108.72;;;2.40;93.30;;;;;;5064307;28;20069;-75
2021/12/27 00:35:55;;;;;;;121.40;108.88;;;2.40;93.40;;;;;;5051974;28;20050;-76
2021/12/27 00:38:23;;;;;;;120.65;108.40;;;2.40;93.40;;;;;;5052051;28;20093;-75
2021/12/27 00:40:50;;;;;;;121.18;108.78;;;2.40;93.50;;;;;;5053509;28;20054;-75
2021/12/27 00:43:18;;;;;;;119.68;107.25;;;2.50;93.60;;;;;;5035502;28;20049;-75
2021/12/27 00:45:46;;;;;;;121.30;108.90;;;2.50;93.20;;;;;;5051821;28;20057;-75
2021/12/27 00:48:15;;;;;;;121.78;109.10;;;2.50;93.30;;;;;;5053182;28;20058;-75
2021/12/27 00:50:42;;;;;;;121.93;109.43;;;2.50;93.50;;;;;;5052016;28;20135;-75
2021/12/27 00:53:09;;;;;;;122.28;109.78;;;2.60;93.60;;;;;;5051958;28;20530;-75
2021/12/27 00:55:37;;;;;;;121.30;109.00;;;2.60;93.40;;;;;;5051766;28;20517;-75
2021/12/27 00:58:04;;;;;;;122.97;110.30;;;2.60;93.40;;;;;;5051159;28;20054;-75
2021/12/27 01:00:31;;;;;;;121.38;108.95;;;2.50;93.10;;;;;;5052014;28;20128;-75
2021/12/27 01:02:59;;;;;;;121.60;109.07;;;2.50;93.30;;;;;;5051841;28;20866;-75
2021/12/27 01:05:27;;;;;;;121.95;109.35;;;2.60;93.70;;;;;;5051441;28;20192;-76
2021/12/27 01:07:54;;;;;;;123.28;110.40;;;2.60;93.60;;;;;;5051850;28;20052;-75
2021/12/27 01:13:35;;;;;;;121.70;109.03;;;2.70;93.20;;;;;;5014253;28;20081;-75
2021/12/27 01:16:11;;;;;;;121.68;109.00;;;2.60;92.90;;;;;;5052958;28;20496;-75
2021/12/27 01:18:45;;;;;;;122.53;109.88;;;2.60;93.10;;;;;;5052284;28;20084;-76
2021/12/27 01:21:13;;;;;;;121.45;108.90;;;2.50;93.20;;;;;;5053549;28;20132;-76
2021/12/27 01:23:41;;;;;;;122.40;109.75;;;2.50;93.50;;;;;;5053136;28;20057;-75
2021/12/27 01:26:08;;;;;;;;;;;2.50;93.00;;;;;;5056110;28;20069;-76
2021/12/27 01:28:37;;;;;;;120.50;107.90;;;2.40;93.00;;;;;;5056238;28;19972;-75
2021/12/27 01:31:04;;;;;;;121.10;108.63;;;2.40;93.30;;;;;;5055131;28;20057;-75
2021/12/27 01:33:44;;;;;;;;;;;2.40;93.50;;;;;;5074730;28;20033;-76
2021/12/27 01:36:32;;;;;;;120.38;107.78;;;2.50;93.80;;;;;;5077260;28;19957;-75
2021/12/27 01:40:10;;;;;;;123.38;110.45;;;2.50;93.60;;;;;;5072745;28;20099;-75
2021/12/27 01:42:37;;;;;;;122.32;109.55;;;2.50;93.70;;;;;;5054141;28;20053;-75
2021/12/27 01:45:09;;;;;;;123.40;110.63;;;2.50;93.30;;;;;;5062789;28;20041;-75
2021/12/27 01:47:36;;;;;;;123.30;110.50;;;2.60;93.50;;;;;;5053409;28;20125;-75
2021/12/27 01:50:04;;;;;;;121.95;109.25;;;2.60;93.70;;;;;;5055444;28;20045;-75
2021/12/27 01:52:31;;;;;;;;;;;2.60;93.30;;;;;;5055491;28;20049;-75
2021/12/27 01:54:57;;;;;;;;;;;2.60;93.00;;;;;;5038657;28;19929;-75
2021/12/27 01:57:25;;;;;;;119.53;106.68;;;2.50;93.20;;;;;;5054525;28;20035;-75
2021/12/27 01:59:51;;;;;;;122.50;109.72;;;2.50;93.60;;;;;;5054446;28;20060;-75
2021/12/27 02:02:20;;;;;;;122.28;109.60;;;2.50;93.60;;;;;;5054493;28;20559;-76
2021/12/27 02:04:47;;;;;;;122.25;109.55;;;2.60;93.70;;;;;;5037517;28;20129;-75
2021/12/27 02:07:14;;;;;;;123.25;110.45;;;2.60;93.50;;;;;;5037241;28;20045;-75
2021/12/27 02:09:51;;;;;;;123.13;110.43;;;2.60;93.40;;;;;;5054308;28;20128;-76
2021/12/27 02:12:18;;;;;;;123.10;110.40;;;2.60;93.50;;;;;;5054314;28;20145;-76
2021/12/27 02:15:35;;;;;;;122.68;109.70;;;2.60;93.20;;;;;;5056771;28;20550;-75
2021/12/27 02:18:05;;;;;;;123.00;110.10;;;2.50;93.00;;;;;;5053910;28;20485;-76
2021/12/27 02:20:36;;;;;;;122.93;110.10;;;2.50;93.20;;;;;;5055886;28;20053;-75
2021/12/27 02:23:08;;;;;;;122.95;110.30;;;2.50;93.20;;;;;;5054548;28;20530;-75
2021/12/27 02:25:35;;;;;;;123.03;110.18;;;2.40;93.20;;;;;;5055234;28;20045;-75
2021/12/27 02:28:06;;;;;;;121.60;109.10;;;2.40;93.20;;;;;;5053968;28;20083;-75
2021/12/27 02:30:35;;;;;;;123.13;110.32;;;2.40;93.30;;;;;;5053447;28;20056;-75
2021/12/27 02:33:40;;;;;;;126.05;112.95;;;2.30;93.50;;;;;;5062208;28;20856;-75
2021/12/27 02:36:29;;;;;;;123.03;110.38;;;2.30;93.50;;;;;;5064289;28;20041;-75
2021/12/27 02:38:56;;;;;;;121.20;108.53;;;2.40;93.70;;;;;;5053674;28;20053;-76
2021/12/27 02:41:23;;;;;;;121.72;109.25;;;2.40;93.50;;;;;;5054602;28;20636;-76
2021/12/27 02:43:50;;;;;;;122.53;109.97;;;2.40;93.50;;;;;;5055125;28;20057;-75
2021/12/27 02:46:17;;;;;;;123.00;110.30;;;2.30;93.50;;;;;;5054820;28;20133;-75
2021/12/27 02:48:46;;;;;;;;;;;2.30;93.50;;;;;;5053948;28;20534;-76
2021/12/27 02:56:09;;;;;;;122.10;109.35;;;2.20;93.60;;;;;;5069771;28;20061;-76
2021/12/27 02:59:01;;;;;;;123.68;110.68;;;2.00;93.50;;;;;;5068752;28;20042;-75
2021/12/27 03:01:37;;;;;;;124.53;111.22;;;2.00;93.70;;;;;;5057928;28;20045;-75
2021/12/27 03:04:04;;;;;;;122.40;109.85;;;1.90;93.90;;;;;;5053316;28;20049;-76
2021/12/27 03:06:31;;;;;;;121.00;108.28;;;1.80;93.90;;;;;;5052993;28;20140;-76
2021/12/27 03:08:59;;;;;;;121.40;108.68;;;1.80;94.00;;;;;;5055335;28;20108;-75
2021/12/27 03:11:27;;;;;;;120.05;107.53;;;1.80;94.00;;;;;;5054427;28;20049;-76
2021/12/27 03:13:55;;;;;;;122.55;109.65;;;1.80;94.10;;;;;;5052610;28;20053;-76
2021/12/27 03:16:25;;;;;;;123.50;110.68;;;1.80;94.10;;;;;;5034990;28;20050;-75
2021/12/27 03:18:55;;;;;;;122.50;109.60;;;1.80;94.00;;;;;;5051866;28;20047;-75
2021/12/27 03:21:22;;;;;;;123.30;110.45;;;1.80;94.20;;;;;;5052138;28;20072;-76
2021/12/27 03:24:15;;;;;;;;;;;1.80;94.30;;;;;;5062928;28;20099;-76
2021/12/27 03:26:43;;;;;;;119.22;106.63;;;1.80;94.40;;;;;;5055113;28;20023;-75
2021/12/27 03:29:10;;;;;;;121.85;108.97;;;1.80;94.50;;;;;;5051872;28;20060;-76
2021/12/27 03:31:42;;;;;;;122.20;109.45;;;1.80;94.30;;;;;;5061332;28;20049;-76
2021/12/27 03:34:11;;;;;;;123.25;110.22;;;1.80;94.50;;;;;;5058376;28;20049;-75
2021/12/27 03:36:40;;;;;;;123.05;110.07;;;1.80;94.70;;;;;;5052208;28;20565;-76
2021/12/27 03:39:09;;;;;;;121.05;108.35;;;1.90;94.80;;;;;;5035586;28;20041;-76
2021/12/27 03:41:37;;;;;;;123.03;110.05;;;1.90;94.60;;;;;;5052084;28;20056;-76
2021/12/27 03:44:05;;;;;;;121.47;108.78;;;2.00;94.70;;;;;;5052864;28;20132;-75
2021/12/27 03:46:32;;;;;;;124.25;111.30;;;2.00;94.70;;;;;;5052190;28;20128;-76
2021/12/27 03:49:00;;;;;;;121.50;108.75;;;2.00;94.50;;;;;;5050525;28;20049;-76
2021/12/27 03:51:27;;;;;;;122.28;109.40;;;2.10;94.90;;;;;;5052156;28;20511;-76
2021/12/27 03:53:54;;;;;;;124.78;111.80;;;2.10;94.90;;;;;;5053078;28;20064;-75
2021/12/27 04:02:39;;;;;;;124.05;111.22;;;2.20;94.70;;;;;;5051610;28;20049;-76
2021/12/27 04:05:08;;;;;;;123.60;110.70;;;2.20;94.80;;;;;;5053237;28;20072;-76
2021/12/27 04:07:36;;;;;;;122.38;109.53;;;2.20;94.60;;;;;;5051639;28;20133;-75
2021/12/27 04:10:06;;;;;;;121.07;108.43;;;2.20;94.50;;;;;;5053348;28;20045;-75
2021/12/27 04:12:33;;;;;;;122.35;109.55;;;2.20;94.60;;;;;;5054472;28;20140;-75
2021/12/27 04:15:01;;;;;;;123.90;111.03;;;2.20;94.70;;;;;;5049143;28;20508;-75
2021/12/27 04:17:29;;;;;;;120.70;108.15;;;2.20;94.60;;;;;;5031629;28;20068;-75
2021/12/27 04:19:56;;;;;;;;;;;2.20;94.60;;;;;;5054084;28;20084;-76
2021/12/27 04:22:24;;;;;;;121.03;108.13;;;2.20;94.80;;;;;;5053235;28;20015;-75
2021/12/27 04:24:51;;;;;;;122.10;109.32;;;2.10;94.50;;;;;;5052362;28;20061;-75
2021/12/27 04:27:20;;;;;;;120.95;108.35;;;2.10;94.60;;;;;;5052183;28;20045;-75
2021/12/27 04:29:47;;;;;;;123.40;110.40;;;2.10;94.70;;;;;;5035908;28;20052;-75
2021/12/27 04:32:16;;;;;;;123.15;110.30;;;2.20;95.10;;;;;;5052754;28;20092;-75
2021/12/27 04:34:43;;;;;;;123.18;110.32;;;2.20;95.00;;;;;;5051946;28;20509;-75
2021/12/27 04:37:10;;;;;;;122.50;109.65;;;2.30;95.00;;;;;;5051970;28;20057;-75
2021/12/27 04:39:37;;;;;;;124.63;111.43;;;2.30;95.00;;;;;;5052146;28;20096;-75
2021/12/27 04:42:06;;;;;;;123.40;110.50;;;2.40;95.10;;;;;;5052124;28;20081;-75
2021/12/27 04:44:33;;;;;;;123.03;110.05;;;2.50;94.90;;;;;;5052184;28;20054;-75
2021/12/27 04:47:01;;;;;;;124.70;111.68;;;2.50;95.00;;;;;;5035353;28;20529;-76
2021/12/27 04:49:30;;;;;;;122.20;109.30;;;2.50;95.00;;;;;;5051968;28;20056;-76
2021/12/27 04:51:57;;;;;;;123.18;110.38;;;2.60;94.90;;;;;;5053362;28;20150;-75
2021/12/27 04:54:24;;;;;;;122.53;109.82;;;2.60;94.70;;;;;;5052050;28;20050;-76
2021/12/27 04:56:51;;;;;;;124.95;111.85;;;2.70;94.80;;;;;;5051916;28;20495;-76
2021/12/27 04:59:18;;;;;;;123.38;110.45;;;2.70;94.90;;;;;;5051896;28;20050;-76
2021/12/27 05:01:45;;;;;;;122.45;109.72;;;2.80;94.90;;;;;;5055492;28;20052;-75
2021/12/27 05:04:12;;;;;;;122.82;110.32;;;2.80;95.00;;;;;;5055574;28;20056;-76
2021/12/27 05:06:40;;;;;;;123.45;110.53;;;2.80;94.60;;;;;;5055316;28;20046;-75
2021/12/27 05:09:07;;;;;;;123.97;110.88;;;2.70;94.50;;;;;;5055109;28;20052;-76
2021/12/27 05:11:34;;;;;;;123.80;110.68;;;2.70;94.70;;;;;;5055231;28;20049;-75
2021/12/27 05:14:01;;;;;;;124.05;111.00;;;2.70;94.70;;;;;;5054929;28;20057;-76
2021/12/27 05:16:28;;;;;;;124.97;111.88;;;2.70;94.80;;;;;;5055263;28;20054;-75
2021/12/27 05:18:55;;;;;;;124.40;111.43;;;2.70;94.80;;;;;;5054801;28;20523;-76
2021/12/27 05:21:22;;;;;;;125.22;111.88;;;2.70;95.00;;;;;;5055121;28;20041;-75
2021/12/27 05:23:50;;;;;;;124.93;111.57;;;2.70;95.00;;;;;;5038599;28;20108;-76
2021/12/27 05:26:18;;;;;;;123.75;110.88;;;2.70;94.90;;;;;;5054989;28;20981;-76
2021/12/27 05:28:45;;;;;;;;;;;2.70;95.10;;;;;;5055473;28;20044;-76
2021/12/27 05:31:41;;;;;;;123.45;110.00;;;2.70;95.10;;;;;;5056312;28;19931;-76
2021/12/27 05:34:08;;;;;;;122.90;109.90;;;2.80;95.10;;;;;;5054518;28;20522;-75
2021/12/27 05:36:35;;;;;;;125.03;111.95;;;2.70;95.00;;;;;;5038271;28;20053;-75
2021/12/27 05:39:03;;;;;;;125.10;112.03;;;2.70;95.10;;;;;;5038226;28;20056;-75
2021/12/27 05:41:30;;;;;;;124.30;111.32;;;2.70;95.00;;;;;;5054321;28;20050;-76
2021/12/27 05:43:59;;;;;;;122.80;110.00;;;2.70;95.30;;;;;;5054939;28;20149;-76
2021/12/27 05:46:26;;;;;;;124.50;111.47;;;2.80;95.30;;;;;;5055111;28;20093;-75
2021/12/27 05:48:53;;;;;;;123.72;110.70;;;2.80;95.20;;;;;;5054516;28;20041;-76
2021/12/27 05:51:20;;;;;;;125.43;112.45;;;2.90;95.20;;;;;;5054912;28;20138;-76
2021/12/27 05:53:47;;;;;;;124.45;111.38;;;2.90;95.30;;;;;;5054620;28;20052;-76
2021/12/27 05:56:15;;;;;;;125.15;111.82;;;2.90;95.10;;;;;;5054300;28;20069;-76
2021/12/27 05:58:42;;;;;;;123.22;110.22;;;3.00;95.20;;;;;;5054245;28;20077;-76
2021/12/27 06:01:09;;;;;;;123.43;110.25;;;3.00;95.30;;;;;;5054684;28;20590;-75
2021/12/27 06:03:37;;;;;;;124.05;111.05;;;3.10;95.20;;;;;;5055710;28;20137;-76
2021/12/27 06:06:04;;;;;;;124.93;111.82;;;3.00;95.00;;;;;;5051027;28;20050;-76
2021/12/27 06:08:31;;;;;;;125.10;112.00;;;3.00;95.20;;;;;;5034329;28;20056;-76
2021/12/27 06:10:58;;;;;;;123.82;110.82;;;3.00;95.10;;;;;;5033631;28;20495;-76
2021/12/27 06:13:26;;;;;;;124.80;111.57;;;3.00;95.20;;;;;;5035220;28;20427;-75
2021/12/27 06:15:53;;;;;;;124.05;111.13;;;3.00;95.20;;;;;;5034409;28;20053;-76
2021/12/27 06:18:20;;;;;;;125.45;112.20;;;3.00;95.40;;;;;;5034562;28;20045;-75
2021/12/27 06:20:47;;;;;;;123.90;110.80;;;3.00;95.30;;;;;;5034344;28;20495;-76
2021/12/27 06:23:15;;;;;;;125.35;112.30;;;3.00;95.20;;;;;;5034437;28;20054;-76
2021/12/27 06:25:43;;;;;;;;;;;3.00;95.20;;;;;;5041812;28;20053;-76
2021/12/27 06:28:10;;;;;;;123.85;110.82;;;3.00;95.60;;;;;;5087837;28;20083;-76
2021/12/27 06:30:39;;;;;;;125.68;112.43;;;3.00;95.50;;;;;;5054407;28;20053;-76
2021/12/27 06:33:06;;;;;;;125.15;111.97;;;3.10;95.50;;;;;;5053904;28;20077;-76
2021/12/27 06:35:34;;;;;;;125.88;112.57;;;3.10;95.50;;;;;;5055197;28;20058;-76
2021/12/27 06:38:01;;;;;;;126.32;113.10;;;3.20;95.40;;;;;;5053413;28;20042;-76
2021/12/27 06:40:28;;;;;;;125.88;112.68;;;3.20;95.40;;;;;;5055529;28;20053;-76
2021/12/27 06:42:57;;;;;;;;;;;3.20;95.40;;;;;;5054730;28;20141;-76
2021/12/27 06:45:24;;;;;;;126.80;113.40;;;3.20;95.50;;;;;;5054786;28;19932;-76
2021/12/27 06:47:53;;;;;;;;;;;3.20;95.50;;;;;;5053847;28;20140;-75
2021/12/27 06:50:21;;;;;;;125.47;111.85;;;3.20;95.70;;;;;;5053117;28;19971;-75
2021/12/27 06:52:48;;;;;;;128.23;114.78;;;3.20;95.50;;;;;;5054241;28;20096;-75
2021/12/27 06:55:16;;;;;;;125.53;112.40;;;3.30;95.40;;;;;;5055228;28;20496;-76
2021/12/27 06:57:43;;;;;;;128.77;114.70;;;3.30;95.70;;;;;;5052779;28;20061;-75
2021/12/27 07:00:11;;;;;;;;;;;3.40;95.80;;;;;;5036931;28;20850;-76
2021/12/27 07:02:38;;;;;;;124.85;111.32;;;3.50;96.10;;;;;;5053248;28;19959;-76
2021/12/27 07:05:07;;;;;;;125.75;112.43;;;3.50;95.70;;;;;;5053467;28;20861;-76
2021/12/27 07:07:35;;;;;;;125.55;112.45;;;3.50;95.60;;;;;;5055058;28;20216;-76
2021/12/27 07:10:06;;;;;;;127.55;114.15;;;3.50;95.70;;;;;;5062897;28;20053;-76
2021/12/27 07:12:33;;;;;;;126.78;113.55;;;3.50;95.60;;;;;;5062043;28;20080;-76
2021/12/27 07:15:02;;;;;;;124.65;111.45;;;3.50;95.60;;;;;;5055274;28;20064;-76
2021/12/27 07:17:31;;;;;;;125.82;112.45;;;3.50;95.50;;;;;;5061306;28;20038;-75
2021/12/27 07:19:58;;;;;;;125.70;112.55;;;3.50;95.50;;;;;;5052382;28;20530;-76
2021/12/27 07:22:32;;;;;;;127.88;114.25;;;3.60;95.50;;;;;;5036114;28;20049;-76
2021/12/27 07:24:59;;;;;;;128.57;115.05;;;3.50;95.40;;;;;;5051103;28;20452;-76
2021/12/27 07:27:26;;;;;;;131.70;117.65;;;3.50;95.50;;;;;;5053339;28;20065;-76
2021/12/27 07:29:53;;;;;;;131.93;118.13;;;3.60;95.50;;;;;;5051359;28;20129;-76
2021/12/27 07:32:21;;;;;;;129.25;115.78;;;3.60;95.50;;;;;;5051579;28;20057;-76
2021/12/27 07:34:48;;;;;;;130.35;116.53;;;3.60;95.40;;;;;;5050889;28;20048;-74
2021/12/27 07:37:16;;;;;;;131.70;118.18;;;3.60;95.60;;;;;;5050124;28;20137;-74
2021/12/27 07:39:45;;;;;;;129.35;115.35;;;3.60;95.50;;;;;;5050127;28;20060;-73
2021/12/27 07:42:12;;;;;;;130.30;116.32;;;3.70;95.50;;;;;;5050335;28;20528;-74
2021/12/27 07:44:39;;;;;;;128.80;115.10;;;3.70;95.50;;;;;;5047605;28;20041;-72
2021/12/27 07:47:06;;;;;;;130.00;115.78;;;3.70;95.30;;;;;;5052032;28;20125;-74
2021/12/27 07:49:33;;;;;;;;;;;3.70;95.30;;;;;;5051182;28;20061;-74
2021/12/27 07:52:00;;;;;;;127.95;114.20;;;3.60;95.70;;;;;;5083515;28;19929;-73
2021/12/27 07:54:27;;;;;;;127.78;113.85;;;3.60;95.40;;;;;;5051807;28;20571;-73
2021/12/27 07:56:56;;;;;;;131.38;115.00;;;3.60;95.30;;;;;;5053745;28;20152;-72
2021/12/27 07:59:23;;;;;;;131.65;117.20;;;3.60;95.30;;;;;;5057428;28;20041;-72
2021/12/27 08:01:50;;;;;;;128.73;114.80;;;3.60;95.30;;;;;;5056149;28;20049;-73
2021/12/27 08:04:17;;;;;;;129.23;115.40;;;3.50;95.30;;;;;;5054628;28;20053;-73
2021/12/27 08:06:50;;;;;;;127.50;113.43;;;3.50;95.40;;;;;;5052832;28;20534;-73
2021/12/27 08:09:20;;;;;;;130.05;115.55;;;3.50;95.40;;;;;;5052037;28;21863;-75
2021/12/27 08:11:47;;;;;;;127.50;112.90;;;3.50;95.50;;;;;;5051621;28;20045;-75
2021/12/27 08:14:16;;;;;;;128.98;114.15;;;3.50;95.50;;;;;;5059949;28;20518;-75
2021/12/27 08:16:43;;;;;;;133.20;115.68;;;3.50;95.50;;;;;;5085266;28;20046;-75
2021/12/27 08:19:10;;;;;;;129.13;115.07;;;3.50;95.50;;;;;;5049797;28;20069;-75
2021/12/27 08:21:37;;;;;;;135.63;114.50;;;3.50;95.50;;;;;;5052512;28;20567;-76
2021/12/27 08:24:05;;;;;;;129.75;115.63;;;3.40;95.50;;;;;;5047124;28;20120;-75
2021/12/27 08:26:32;;;;;;;129.93;115.65;;;3.40;95.60;;;;;;5049704;28;20050;-75
2021/12/27 08:29:02;;;;;;;132.88;117.57;;;3.40;95.60;;;;;;5050553;28;20056;-75
2021/12/27 08:31:31;;;;;;;131.95;116.28;;;3.40;95.60;;;;;;5050680;28;20065;-75
2021/12/27 08:33:58;;;;;;;131.15;116.90;;;3.40;95.60;;;;;;5084632;28;20053;-75
2021/12/27 08:36:25;;;;;;;129.52;114.70;;;3.50;95.70;;;;;;5037462;28;20042;-76
2021/12/27 08:38:53;;;;;;;134.13;115.50;;;3.50;95.70;;;;;;5055937;28;20046;-75
2021/12/27 08:41:27;;;;;;;129.93;115.35;;;3.50;95.60;;;;;;5078692;28;20041;-76
2021/12/27 08:43:55;;;;;;;135.25;114.43;;;3.50;95.70;;;;;;5054652;28;20129;-76
2021/12/27 08:46:22;;;;;;;134.00;119.38;;;3.40;95.60;;;;;;5055018;28;20045;-76
2021/12/27 08:48:51;;;;;;;135.80;115.80;;;3.50;95.70;;;;;;5045162;28;20065;-77
2021/12/27 08:51:18;;;;;;;135.80;116.07;;;3.50;95.80;;;;;;5054132;28;20056;-76
2021/12/27 08:53:46;;;;;;;137.35;115.63;;;3.50;95.80;;;;;;5052044;28;20076;-76
2021/12/27 08:56:13;;;;;;;128.88;114.65;;;3.50;95.80;;;;;;5054498;28;20057;-76
2021/12/27 08:58:40;;;;;;;135.38;115.43;;;3.40;95.70;;;;;;5046389;28;20058;-77
2021/12/27 09:01:07;;;;;;;134.57;114.78;;;3.40;95.80;;;;;;5038725;28;20049;-76
2021/12/27 09:03:34;;;;;;;137.05;115.78;;;3.40;95.90;;;;;;5055402;28;20439;-74
2021/12/27 09:06:04;;;;;;;136.52;114.90;;;3.40;95.90;;;;;;5054764;28;20050;-77
2021/12/27 09:08:31;;;;;;;132.68;115.63;;;3.50;96.00;;;;;;5070760;22;20979;-78
2021/12/27 09:10:59;;;;;;;140.35;118.43;;;3.50;96.00;;;;;;5037528;28;20057;-77
2021/12/27 09:13:27;;;;;;;135.38;115.05;;;3.50;96.00;;;;;;5056435;28;20599;-78
2021/12/27 09:15:55;;;;;;;133.77;117.72;;;3.50;96.10;;;;;;5037923;28;20054;-75
2021/12/27 09:18:22;;;;;;;136.98;119.68;;;3.60;96.10;;;;;;5054760;28;20129;-76
2021/12/27 09:20:49;;;;;;;139.85;118.50;;;3.60;96.20;;;;;;5086997;28;20064;-76
2021/12/27 09:23:17;;;;;;;145.63;120.38;;;3.60;96.10;;;;;;5069678;28;20049;-75
2021/12/27 09:25:45;;;;;;;141.45;120.60;;;3.70;96.20;;;;;;5074334;28;20068;-75
2021/12/27 09:28:13;;;;;;;141.32;116.50;;;3.70;96.10;;;;;;5067232;28;20045;-77
2021/12/27 09:30:40;;;;;;;141.55;114.95;;;3.70;96.10;;;;;;5054805;28;20045;-77
2021/12/27 09:33:07;;;;;;;136.10;116.82;;;3.70;96.10;;;;;;5056558;28;20088;-77
2021/12/27 09:35:35;;;;;;;137.88;115.88;;;3.70;96.20;;;;;;5038954;28;20050;-77
2021/12/27 09:38:03;;;;;;;139.95;117.20;;;3.70;96.20;;;;;;5070438;28;20052;-76
2021/12/27 09:40:31;;;;;;;;;;;3.80;96.20;;;;;;5056163;28;20136;-76
2021/12/27 09:42:58;;;;;;;150.18;119.68;;;3.80;96.40;;;;;;5089834;28;20435;-77
2021/12/27 09:45:25;;;;;;;142.43;115.93;;;3.80;96.30;;;;;;5063576;28;20053;-77
2021/12/27 09:47:53;;;;;;;138.32;116.45;;;3.80;96.20;;;;;;5088656;28;20068;-77
2021/12/27 09:50:25;;;;;;;139.90;115.78;;;3.80;96.30;;;;;;5080792;28;20056;-76
2021/12/27 09:52:52;;;;;;;143.23;118.10;;;3.90;96.30;;;;;;5059138;28;20703;-76
2021/12/27 09:55:19;;;;;;;143.32;119.00;;;3.90;96.30;;;;;;5020956;28;20503;-75
2021/12/27 09:57:47;;;;;;;134.68;116.50;;;3.90;96.30;;;;;;5060627;28;20057;-76
2021/12/27 10:00:16;;;;;;;141.82;118.53;;;3.90;96.30;;;;;;5086754;28;20069;-78
2021/12/27 10:02:45;;;;;;;137.30;116.35;;;3.90;96.30;;;;;;5061507;28;20500;-73
2021/12/27 10:05:12;;;;;;;136.60;116.93;;;3.90;96.40;;;;;;5060419;28;20049;-72
2021/12/27 10:07:41;;;;;;;136.63;117.10;;;3.90;96.40;;;;;;5057734;28;20412;-73
2021/12/27 10:10:10;;;;;;;137.65;116.03;;;3.90;96.40;;;;;;5053130;28;20075;-71
2021/12/27 10:12:37;;;;;;;141.50;118.75;;;3.90;96.50;;;;;;5053343;28;20058;-74
2021/12/27 10:15:07;;;;;;;;;;;4.00;96.50;;;;;;5053059;28;20176;-75
2021/12/27 10:17:37;;;;;;;134.85;116.05;;;4.00;96.60;;;;;;5055278;28;19947;-74
2021/12/27 10:20:13;;;;;;;145.20;117.50;;;4.10;96.60;;;;;;5052899;28;20053;-75
2021/12/27 10:22:41;;;;;;;143.57;118.65;;;4.10;96.60;;;;;;5049555;28;20594;-74
2021/12/27 10:25:15;;;;;;;140.40;116.32;;;4.10;96.60;;;;;;5085132;28;20049;-75
2021/12/27 10:27:50;;;;;;;140.73;118.75;;;4.20;96.60;;;;;;5054421;28;20940;-74
2021/12/27 10:30:28;;;;;;;141.55;121.88;;;4.20;96.70;;;;;;5053722;28;20057;-74
2021/12/27 10:33:05;;;;;;;142.13;119.30;;;4.20;96.60;;;;;;5054293;28;20084;-74
2021/12/27 10:35:40;;;;;;;139.23;119.22;;;4.20;96.70;;;;;;5051475;28;20068;-74
2021/12/27 10:38:20;;;;;;;144.45;118.53;;;4.20;96.80;;;;;;5085385;28;20063;-73
2021/12/27 10:40:52;;;;;;;133.82;119.03;;;4.20;96.80;;;;;;5061011;28;20476;-75
2021/12/27 10:43:34;;;;;;;143.68;118.45;;;4.10;96.80;;;;;;5052740;28;20128;-75
2021/12/27 10:46:03;;;;;;;142.85;118.70;;;4.10;96.80;;;;;;5054386;28;20081;-76
2021/12/27 10:48:33;;;;;;;147.57;119.43;;;4.10;96.90;;;;;;5049632;28;20140;-76
2021/12/27 10:51:01;;;;;;;139.13;118.78;;;4.10;96.90;;;;;;5062071;28;20054;-76
2021/12/27 10:53:28;;;;;;;140.43;118.22;;;4.10;96.90;;;;;;5050182;28;20136;-76
2021/12/27 10:55:56;;;;;;;;;;;4.20;97.00;;;;;;5040560;28;20046;-76
2021/12/27 10:58:26;;;;;;;139.70;114.57;;;4.10;97.00;;;;;;5052083;28;19925;-75
2021/12/27 11:00:57;;;;;;;146.55;118.90;;;4.20;97.20;;;;;;5052358;28;20060;-75
2021/12/27 11:03:30;;;;;;;142.23;117.00;;;4.20;97.20;;;;;;5055328;28;20052;-76
2021/12/27 11:05:58;;;;;;;137.63;116.97;;;4.20;97.30;;;;;;5076042;28;20120;-75
2021/12/27 11:08:26;;;;;;;147.82;117.75;;;4.30;97.40;;;;;;5051774;28;20127;-75
2021/12/27 11:10:54;;;;;;;137.23;115.93;;;4.30;97.40;;;;;;5049855;28;20042;-75
2021/12/27 11:13:21;;;;;;;142.75;120.03;;;4.30;97.40;;;;;;5056204;28;20064;-75
2021/12/27 11:15:48;;;;;;;151.40;120.15;;;4.40;97.50;;;;;;5084574;28;20122;-76
2021/12/27 11:18:16;;;;;;;152.27;122.55;;;4.40;97.40;;;;;;5037702;28;20061;-76
2021/12/27 11:20:48;;;;;;;137.98;117.93;;;4.50;97.60;;;;;;5051386;28;20049;-76
2021/12/27 11:23:16;;;;;;;147.85;117.32;;;4.60;97.50;;;;;;5035953;28;20049;-76
2021/12/27 11:25:46;;;;;;;140.60;121.15;;;4.60;97.60;;;;;;5048364;28;20057;-76
2021/12/27 11:28:27;;;;;;;139.98;119.00;;;4.60;97.30;;;;;;5051815;28;20054;-76
2021/12/27 11:30:56;;;;;;;140.07;118.97;;;4.60;97.30;;;;;;5035579;28;20050;-75
2021/12/27 11:33:25;;;;;;;144.15;118.97;;;4.60;97.30;;;;;;5050118;28;20491;-74
2021/12/27 11:36:09;;;;;;;138.77;118.00;;;4.50;97.30;;;;;;5064907;28;20050;-74
2021/12/27 11:38:40;;;;;;;142.48;117.20;;;4.50;97.50;;;;;;5048437;28;20057;-74
2021/12/27 11:41:27;;;;;;;136.75;118.88;;;4.50;97.40;;;;;;5048655;28;20561;-73
2021/12/27 11:43:56;;;;;;;144.23;119.10;;;4.60;97.40;;;;;;5066616;28;20053;-74
2021/12/27 11:46:24;;;;;;;142.45;120.53;;;4.60;97.40;;;;;;5048708;28;20110;-74
2021/12/27 11:48:54;;;;;;;142.98;119.40;;;4.60;97.30;;;;;;5040800;28;20501;-72
2021/12/27 11:51:32;;;;;;;144.27;120.63;;;4.60;97.30;;;;;;5038681;28;20058;-73
2021/12/27 11:54:00;;;;;;;152.30;121.90;;;4.60;97.30;;;;;;5050738;28;20471;-74
2021/12/27 11:56:48;;;;;;;149.32;121.72;;;4.60;97.30;;;;;;5017306;28;20046;-77
2021/12/27 11:59:42;;;;;;;150.48;120.75;;;4.60;97.30;;;;;;5050667;28;20057;-74
2021/12/27 12:02:29;;;;;;;148.95;121.95;;;4.60;97.30;;;;;;5053017;28;20052;-74
2021/12/27 12:04:58;;;;;;;157.48;125.57;;;4.60;97.30;;;;;;5081155;28;20113;-74
2021/12/27 12:07:50;;;;;;;147.15;122.35;;;4.60;97.30;;;;;;5034339;28;20081;-77
2021/12/27 12:10:19;;;;;;;149.25;121.43;;;4.60;97.40;;;;;;5046005;28;20053;-76
2021/12/27 12:13:18;;;;;;;146.10;120.50;;;4.60;97.40;;;;;;5033901;28;20526;-75
2021/12/27 12:16:02;;;;;;;153.93;123.68;;;4.60;97.50;;;;;;5036734;28;20479;-75
2021/12/27 12:18:31;;;;;;;154.00;125.55;;;4.60;97.60;;;;;;5032519;28;20057;-76
2021/12/27 12:20:59;;;;;;;150.82;121.45;;;4.60;97.60;;;;;;5050343;28;20049;-76
2021/12/27 12:23:27;;;;;;;144.95;121.25;;;4.60;97.70;;;;;;5051854;28;20061;-77
2021/12/27 12:26:01;;;;;;;144.57;123.47;;;4.50;97.70;;;;;;5050024;28;20053;-76
2021/12/27 12:28:29;;;;;;;150.93;121.07;;;4.50;97.60;;;;;;5050140;28;20049;-78
2021/12/27 12:30:57;;;;;;;146.23;120.93;;;4.50;97.80;;;;;;5067145;28;20057;-76
2021/12/27 12:33:26;;;;;;;151.73;122.18;;;4.50;97.80;;;;;;5025882;28;20057;-77
2021/12/27 12:35:56;;;;;;;153.52;122.47;;;4.50;97.80;;;;;;5050608;28;20096;-76
2021/12/27 12:38:25;;;;;;;160.50;125.18;;;4.50;97.80;;;;;;5032890;28;20121;-74
2021/12/27 12:41:03;;;;;;;155.13;124.40;;;4.50;97.80;;;;;;5055864;28;20061;-76
2021/12/27 12:43:38;;;;;;;156.48;123.28;;;4.60;97.90;;;;;;5026990;28;20061;-75
2021/12/27 12:46:18;;;;;;;154.35;123.18;;;4.50;98.10;;;;;;5076004;28;20087;-74
2021/12/27 12:48:55;;;;;;;152.77;121.97;;;4.50;97.90;;;;;;5079459;28;20041;-74
2021/12/27 12:51:31;;;;;;;153.00;123.03;;;4.50;97.90;;;;;;5080490;28;20073;-73